sensor_id;sensor_type;location;lat;lon;timestamp;P1;durP1;ratioP1;P2;durP2;ratioP2
45039;SDS011;30778;53.574;7.770;2022-09-16T00:00:16;3.25;;;0.20;;
45039;SDS011;30778;53.574;7.770;2022-09-16T00:02:41;2.92;;;0.45;;
45039;SDS011;30778;53.574;7.770;2022-09-16T00:05:07;0.30;;;0.10;;
45039;SDS011;30778;53.574;7.770;2022-09-16T00:07:33;2.83;;;0.10;;
45039;SDS011;30778;53.574;7.770;2022-09-16T00:09:59;1.42;;;0.47;;
45039;SDS011;30778;53.574;7.770;2022-09-16T00:12:25;4.88;;;0.50;;
45039;SDS011;30778;53.574;7.770;2022-09-16T00:14:51;0.88;;;0.17;;
45039;SDS011;30778;53.574;7.770;2022-09-16T00:17:17;13.05;;;0.85;;
45039;SDS011;30778;53.574;7.770;2022-09-16T00:19:43;5.88;;;0.55;;
45039;SDS011;30778;53.574;7.770;2022-09-16T00:22:08;2.20;;;0.20;;
45039;SDS011;30778;53.574;7.770;2022-09-16T00:24:34;4.32;;;0.28;;
45039;SDS011;30778;53.574;7.770;2022-09-16T00:26:59;7.18;;;0.60;;
45039;SDS011;30778;53.574;7.770;2022-09-16T00:29:25;4.15;;;0.20;;
45039;SDS011;30778;53.574;7.770;2022-09-16T00:31:50;1.38;;;0.35;;
45039;SDS011;30778;53.574;7.770;2022-09-16T00:34:16;5.95;;;1.15;;
45039;SDS011;30778;53.574;7.770;2022-09-16T00:36:41;6.72;;;1.17;;
45039;SDS011;30778;53.574;7.770;2022-09-16T00:39:07;2.33;;;0.77;;
45039;SDS011;30778;53.574;7.770;2022-09-16T00:41:32;6.70;;;0.32;;
45039;SDS011;30778;53.574;7.770;2022-09-16T00:46:34;7.78;;;0.35;;
45039;SDS011;30778;53.574;7.770;2022-09-16T00:49:02;2.90;;;0.10;;
45039;SDS011;30778;53.574;7.770;2022-09-16T00:51:31;3.72;;;0.30;;
45039;SDS011;30778;53.574;7.770;2022-09-16T00:53:58;3.35;;;0.88;;
45039;SDS011;30778;53.574;7.770;2022-09-16T00:56:27;3.13;;;0.30;;
45039;SDS011;30778;53.574;7.770;2022-09-16T00:59:10;3.70;;;0.38;;
45039;SDS011;30778;53.574;7.770;2022-09-16T01:01:40;3.80;;;0.30;;
45039;SDS011;30778;53.574;7.770;2022-09-16T01:04:12;5.38;;;0.25;;
45039;SDS011;30778;53.574;7.770;2022-09-16T01:06:42;3.67;;;0.20;;
45039;SDS011;30778;53.574;7.770;2022-09-16T01:09:08;1.63;;;0.17;;
45039;SDS011;30778;53.574;7.770;2022-09-16T01:11:33;9.45;;;0.55;;
45039;SDS011;30778;53.574;7.770;2022-09-16T01:13:59;0.73;;;0.15;;
45039;SDS011;30778;53.574;7.770;2022-09-16T01:17:00;1.45;;;0.20;;
45039;SDS011;30778;53.574;7.770;2022-09-16T01:22:30;2.08;;;0.20;;
45039;SDS011;30778;53.574;7.770;2022-09-16T01:28:11;1.40;;;0.10;;
45039;SDS011;30778;53.574;7.770;2022-09-16T01:30:51;2.72;;;0.50;;
45039;SDS011;30778;53.574;7.770;2022-09-16T01:41:27;2.20;;;0.10;;
45039;SDS011;30778;53.574;7.770;2022-09-16T01:47:01;2.72;;;0.30;;
45039;SDS011;30778;53.574;7.770;2022-09-16T01:49:42;4.90;;;0.93;;
45039;SDS011;30778;53.574;7.770;2022-09-16T01:52:29;3.17;;;0.20;;
45039;SDS011;30778;53.574;7.770;2022-09-16T01:55:05;4.05;;;0.20;;
45039;SDS011;30778;53.574;7.770;2022-09-16T01:57:39;3.95;;;0.43;;
45039;SDS011;30778;53.574;7.770;2022-09-16T02:00:12;1.20;;;0.35;;
45039;SDS011;30778;53.574;7.770;2022-09-16T02:05:09;0.93;;;0.13;;
45039;SDS011;30778;53.574;7.770;2022-09-16T02:07:40;7.47;;;0.63;;
45039;SDS011;30778;53.574;7.770;2022-09-16T02:12:59;4.80;;;0.30;;
45039;SDS011;30778;53.574;7.770;2022-09-16T02:15:29;1.65;;;0.20;;
45039;SDS011;30778;53.574;7.770;2022-09-16T02:18:08;4.25;;;0.20;;
45039;SDS011;30778;53.574;7.770;2022-09-16T02:20:39;3.20;;;0.20;;
45039;SDS011;30778;53.574;7.770;2022-09-16T02:23:28;3.75;;;0.20;;
45039;SDS011;30778;53.574;7.770;2022-09-16T02:25:57;4.53;;;0.17;;
45039;SDS011;30778;53.574;7.770;2022-09-16T02:28:29;5.68;;;1.30;;
45039;SDS011;30778;53.574;7.770;2022-09-16T02:31:00;1.60;;;0.38;;
45039;SDS011;30778;53.574;7.770;2022-09-16T02:33:31;4.80;;;0.20;;
45039;SDS011;30778;53.574;7.770;2022-09-16T02:35:59;1.67;;;0.15;;
45039;SDS011;30778;53.574;7.770;2022-09-16T02:38:39;4.13;;;0.35;;
45039;SDS011;30778;53.574;7.770;2022-09-16T02:41:09;6.07;;;0.85;;
45039;SDS011;30778;53.574;7.770;2022-09-16T02:43:39;3.60;;;0.35;;
45039;SDS011;30778;53.574;7.770;2022-09-16T02:57:17;8.30;;;0.35;;
45039;SDS011;30778;53.574;7.770;2022-09-16T02:59:43;1.20;;;0.20;;
45039;SDS011;30778;53.574;7.770;2022-09-16T03:02:09;3.60;;;0.55;;
45039;SDS011;30778;53.574;7.770;2022-09-16T03:04:35;5.57;;;0.20;;
45039;SDS011;30778;53.574;7.770;2022-09-16T03:07:02;4.45;;;0.40;;
45039;SDS011;30778;53.574;7.770;2022-09-16T03:09:37;10.75;;;0.52;;
45039;SDS011;30778;53.574;7.770;2022-09-16T03:12:13;6.47;;;0.40;;
45039;SDS011;30778;53.574;7.770;2022-09-16T03:15:08;5.90;;;0.32;;
45039;SDS011;30778;53.574;7.770;2022-09-16T03:17:54;5.53;;;0.40;;
45039;SDS011;30778;53.574;7.770;2022-09-16T03:23:22;5.03;;;0.20;;
45039;SDS011;30778;53.574;7.770;2022-09-16T03:34:43;3.40;;;0.15;;
45039;SDS011;30778;53.574;7.770;2022-09-16T03:37:16;4.35;;;0.50;;
45039;SDS011;30778;53.574;7.770;2022-09-16T03:39:48;2.78;;;0.17;;
45039;SDS011;30778;53.574;7.770;2022-09-16T03:42:19;8.40;;;0.43;;
45039;SDS011;30778;53.574;7.770;2022-09-16T03:44:45;3.88;;;0.20;;
45039;SDS011;30778;53.574;7.770;2022-09-16T03:47:10;2.90;;;0.10;;
45039;SDS011;30778;53.574;7.770;2022-09-16T03:49:36;4.78;;;0.22;;
45039;SDS011;30778;53.574;7.770;2022-09-16T03:52:03;9.25;;;0.70;;
45039;SDS011;30778;53.574;7.770;2022-09-16T03:54:33;9.18;;;0.50;;
45039;SDS011;30778;53.574;7.770;2022-09-16T03:56:59;3.58;;;0.30;;
45039;SDS011;30778;53.574;7.770;2022-09-16T03:59:25;6.78;;;0.20;;
45039;SDS011;30778;53.574;7.770;2022-09-16T04:01:51;7.28;;;0.20;;
45039;SDS011;30778;53.574;7.770;2022-09-16T04:04:17;5.25;;;0.40;;
45039;SDS011;30778;53.574;7.770;2022-09-16T04:06:42;7.15;;;0.40;;
45039;SDS011;30778;53.574;7.770;2022-09-16T04:09:11;6.47;;;0.70;;
45039;SDS011;30778;53.574;7.770;2022-09-16T04:11:40;13.35;;;0.40;;
45039;SDS011;30778;53.574;7.770;2022-09-16T04:14:05;5.60;;;0.28;;
45039;SDS011;30778;53.574;7.770;2022-09-16T04:16:32;7.22;;;0.40;;
45039;SDS011;30778;53.574;7.770;2022-09-16T04:18:58;5.90;;;0.43;;
45039;SDS011;30778;53.574;7.770;2022-09-16T04:21:23;4.28;;;0.20;;
45039;SDS011;30778;53.574;7.770;2022-09-16T04:23:49;4.43;;;0.30;;
45039;SDS011;30778;53.574;7.770;2022-09-16T04:26:15;4.00;;;0.40;;
45039;SDS011;30778;53.574;7.770;2022-09-16T04:28:41;2.10;;;0.30;;
45039;SDS011;30778;53.574;7.770;2022-09-16T04:31:11;1.35;;;0.13;;
45039;SDS011;30778;53.574;7.770;2022-09-16T04:33:38;2.28;;;0.10;;
45039;SDS011;30778;53.574;7.770;2022-09-16T04:36:08;4.88;;;0.73;;
45039;SDS011;30778;53.574;7.770;2022-09-16T04:41:03;1.17;;;0.10;;
45039;SDS011;30778;53.574;7.770;2022-09-16T04:43:36;6.68;;;0.28;;
45039;SDS011;30778;53.574;7.770;2022-09-16T04:46:03;5.88;;;0.25;;
45039;SDS011;30778;53.574;7.770;2022-09-16T04:48:29;6.45;;;0.45;;
45039;SDS011;30778;53.574;7.770;2022-09-16T04:51:00;3.38;;;0.63;;
45039;SDS011;30778;53.574;7.770;2022-09-16T04:53:28;8.35;;;0.22;;
45039;SDS011;30778;53.574;7.770;2022-09-16T04:56:00;10.00;;;0.20;;
45039;SDS011;30778;53.574;7.770;2022-09-16T04:58:28;3.03;;;0.45;;
45039;SDS011;30778;53.574;7.770;2022-09-16T05:00:53;7.28;;;0.50;;
45039;SDS011;30778;53.574;7.770;2022-09-16T05:03:19;3.75;;;0.35;;
45039;SDS011;30778;53.574;7.770;2022-09-16T05:05:44;7.18;;;0.15;;
45039;SDS011;30778;53.574;7.770;2022-09-16T05:08:09;4.18;;;0.35;;
45039;SDS011;30778;53.574;7.770;2022-09-16T05:10:35;2.78;;;0.22;;
45039;SDS011;30778;53.574;7.770;2022-09-16T05:13:00;5.10;;;0.55;;
45039;SDS011;30778;53.574;7.770;2022-09-16T05:15:26;10.18;;;0.57;;
45039;SDS011;30778;53.574;7.770;2022-09-16T05:17:52;1.05;;;0.20;;
45039;SDS011;30778;53.574;7.770;2022-09-16T05:20:17;3.33;;;0.10;;
45039;SDS011;30778;53.574;7.770;2022-09-16T05:22:43;4.10;;;0.10;;
45039;SDS011;30778;53.574;7.770;2022-09-16T05:25:09;5.25;;;0.20;;
45039;SDS011;30778;53.574;7.770;2022-09-16T05:27:34;4.82;;;0.85;;
45039;SDS011;30778;53.574;7.770;2022-09-16T05:30:00;7.50;;;1.17;;
45039;SDS011;30778;53.574;7.770;2022-09-16T05:32:25;8.10;;;0.20;;
45039;SDS011;30778;53.574;7.770;2022-09-16T05:34:51;2.80;;;0.20;;
45039;SDS011;30778;53.574;7.770;2022-09-16T05:37:17;6.13;;;0.40;;
45039;SDS011;30778;53.574;7.770;2022-09-16T05:39:42;6.53;;;0.10;;
45039;SDS011;30778;53.574;7.770;2022-09-16T05:42:08;3.65;;;0.65;;
45039;SDS011;30778;53.574;7.770;2022-09-16T05:44:34;2.60;;;0.10;;
45039;SDS011;30778;53.574;7.770;2022-09-16T05:47:01;4.05;;;0.25;;
45039;SDS011;30778;53.574;7.770;2022-09-16T05:49:26;2.72;;;0.20;;
45039;SDS011;30778;53.574;7.770;2022-09-16T05:51:52;8.48;;;0.38;;
45039;SDS011;30778;53.574;7.770;2022-09-16T05:54:18;1.38;;;0.13;;
45039;SDS011;30778;53.574;7.770;2022-09-16T05:56:45;3.55;;;0.65;;
45039;SDS011;30778;53.574;7.770;2022-09-16T05:59:11;2.90;;;0.45;;
45039;SDS011;30778;53.574;7.770;2022-09-16T06:01:38;6.07;;;0.40;;
45039;SDS011;30778;53.574;7.770;2022-09-16T06:04:05;7.80;;;0.32;;
45039;SDS011;30778;53.574;7.770;2022-09-16T06:06:35;4.78;;;0.30;;
45039;SDS011;30778;53.574;7.770;2022-09-16T06:09:04;7.17;;;0.47;;
45039;SDS011;30778;53.574;7.770;2022-09-16T06:11:34;10.82;;;0.32;;
45039;SDS011;30778;53.574;7.770;2022-09-16T06:14:01;3.20;;;0.30;;
45039;SDS011;30778;53.574;7.770;2022-09-16T06:16:27;8.85;;;0.38;;
45039;SDS011;30778;53.574;7.770;2022-09-16T06:18:57;5.47;;;0.35;;
45039;SDS011;30778;53.574;7.770;2022-09-16T06:21:24;4.93;;;0.30;;
45039;SDS011;30778;53.574;7.770;2022-09-16T06:23:50;4.82;;;0.30;;
45039;SDS011;30778;53.574;7.770;2022-09-16T06:26:17;6.63;;;0.28;;
45039;SDS011;30778;53.574;7.770;2022-09-16T06:28:45;5.60;;;0.40;;
45039;SDS011;30778;53.574;7.770;2022-09-16T06:31:17;5.53;;;0.20;;
45039;SDS011;30778;53.574;7.770;2022-09-16T06:33:44;7.35;;;0.32;;
45039;SDS011;30778;53.574;7.770;2022-09-16T06:36:14;6.65;;;0.20;;
45039;SDS011;30778;53.574;7.770;2022-09-16T06:38:43;2.25;;;0.20;;
45039;SDS011;30778;53.574;7.770;2022-09-16T06:41:09;5.50;;;0.28;;
45039;SDS011;30778;53.574;7.770;2022-09-16T06:43:36;3.17;;;0.20;;
45039;SDS011;30778;53.574;7.770;2022-09-16T06:46:07;6.18;;;0.20;;
45039;SDS011;30778;53.574;7.770;2022-09-16T06:48:37;2.25;;;0.25;;
45039;SDS011;30778;53.574;7.770;2022-09-16T06:51:05;5.85;;;0.20;;
45039;SDS011;30778;53.574;7.770;2022-09-16T06:53:35;3.23;;;0.30;;
45039;SDS011;30778;53.574;7.770;2022-09-16T06:56:02;7.78;;;0.40;;
45039;SDS011;30778;53.574;7.770;2022-09-16T06:58:32;6.83;;;0.40;;
45039;SDS011;30778;53.574;7.770;2022-09-16T07:01:03;3.42;;;0.90;;
45039;SDS011;30778;53.574;7.770;2022-09-16T07:03:32;3.40;;;0.38;;
45039;SDS011;30778;53.574;7.770;2022-09-16T07:05:59;4.07;;;0.43;;
45039;SDS011;30778;53.574;7.770;2022-09-16T07:08:28;5.15;;;0.40;;
45039;SDS011;30778;53.574;7.770;2022-09-16T07:11:04;6.28;;;0.22;;
45039;SDS011;30778;53.574;7.770;2022-09-16T07:13:37;2.90;;;0.40;;
45039;SDS011;30778;53.574;7.770;2022-09-16T07:16:03;3.88;;;0.30;;
45039;SDS011;30778;53.574;7.770;2022-09-16T07:18:34;4.85;;;0.60;;
45039;SDS011;30778;53.574;7.770;2022-09-16T07:21:00;4.13;;;0.60;;
45039;SDS011;30778;53.574;7.770;2022-09-16T07:23:33;6.60;;;0.75;;
45039;SDS011;30778;53.574;7.770;2022-09-16T07:26:04;3.15;;;0.38;;
45039;SDS011;30778;53.574;7.770;2022-09-16T07:28:34;6.55;;;0.60;;
45039;SDS011;30778;53.574;7.770;2022-09-16T07:31:02;8.95;;;0.43;;
45039;SDS011;30778;53.574;7.770;2022-09-16T07:33:29;6.28;;;0.77;;
45039;SDS011;30778;53.574;7.770;2022-09-16T07:36:00;6.85;;;0.40;;
45039;SDS011;30778;53.574;7.770;2022-09-16T07:38:28;4.25;;;0.20;;
45039;SDS011;30778;53.574;7.770;2022-09-16T07:40:54;9.50;;;0.50;;
45039;SDS011;30778;53.574;7.770;2022-09-16T07:43:20;6.25;;;0.73;;
45039;SDS011;30778;53.574;7.770;2022-09-16T07:46:09;7.45;;;2.25;;
45039;SDS011;30778;53.574;7.770;2022-09-16T07:48:38;9.30;;;0.50;;
45039;SDS011;30778;53.574;7.770;2022-09-16T07:53:35;5.28;;;0.28;;
45039;SDS011;30778;53.574;7.770;2022-09-16T07:56:06;5.10;;;0.20;;
45039;SDS011;30778;53.574;7.770;2022-09-16T07:58:37;4.57;;;0.10;;
45039;SDS011;30778;53.574;7.770;2022-09-16T08:01:04;3.75;;;0.30;;
45039;SDS011;30778;53.574;7.770;2022-09-16T08:03:32;9.02;;;0.40;;
45039;SDS011;30778;53.574;7.770;2022-09-16T08:06:05;6.28;;;0.30;;
45039;SDS011;30778;53.574;7.770;2022-09-16T08:08:32;2.72;;;0.25;;
45039;SDS011;30778;53.574;7.770;2022-09-16T08:10:59;4.32;;;0.20;;
45039;SDS011;30778;53.574;7.770;2022-09-16T08:13:26;3.92;;;0.20;;
45039;SDS011;30778;53.574;7.770;2022-09-16T08:15:54;2.85;;;0.20;;
45039;SDS011;30778;53.574;7.770;2022-09-16T08:18:23;3.15;;;0.38;;
45039;SDS011;30778;53.574;7.770;2022-09-16T08:20:48;5.30;;;0.82;;
45039;SDS011;30778;53.574;7.770;2022-09-16T08:23:14;1.33;;;0.10;;
45039;SDS011;30778;53.574;7.770;2022-09-16T08:25:40;3.75;;;0.32;;
45039;SDS011;30778;53.574;7.770;2022-09-16T08:28:13;1.92;;;0.50;;
45039;SDS011;30778;53.574;7.770;2022-09-16T08:30:40;3.83;;;0.30;;
45039;SDS011;30778;53.574;7.770;2022-09-16T08:33:08;3.75;;;0.20;;
45039;SDS011;30778;53.574;7.770;2022-09-16T08:35:35;3.85;;;0.17;;
45039;SDS011;30778;53.574;7.770;2022-09-16T08:38:01;4.05;;;0.70;;
45039;SDS011;30778;53.574;7.770;2022-09-16T08:40:27;4.72;;;0.43;;
45039;SDS011;30778;53.574;7.770;2022-09-16T08:48:25;4.40;;;0.10;;
45039;SDS011;30778;53.574;7.770;2022-09-16T08:51:22;5.05;;;0.25;;
45039;SDS011;30778;53.574;7.770;2022-09-16T08:53:56;6.45;;;1.33;;
45039;SDS011;30778;53.574;7.770;2022-09-16T08:56:27;6.53;;;0.40;;
45039;SDS011;30778;53.574;7.770;2022-09-16T08:58:58;8.68;;;0.65;;
45039;SDS011;30778;53.574;7.770;2022-09-16T09:01:28;7.38;;;0.73;;
45039;SDS011;30778;53.574;7.770;2022-09-16T09:04:00;6.22;;;0.73;;
45039;SDS011;30778;53.574;7.770;2022-09-16T09:06:32;4.03;;;0.30;;
45039;SDS011;30778;53.574;7.770;2022-09-16T09:12:12;7.95;;;0.70;;
45039;SDS011;30778;53.574;7.770;2022-09-16T09:20:35;8.85;;;0.60;;
45039;SDS011;30778;53.574;7.770;2022-09-16T09:23:29;1.85;;;0.28;;
45039;SDS011;30778;53.574;7.770;2022-09-16T09:36:51;4.32;;;0.20;;
45039;SDS011;30778;53.574;7.770;2022-09-16T09:42:49;1.73;;;0.10;;
45039;SDS011;30778;53.574;7.770;2022-09-16T09:45:27;4.68;;;0.20;;
45039;SDS011;30778;53.574;7.770;2022-09-16T09:47:58;3.50;;;0.32;;
45039;SDS011;30778;53.574;7.770;2022-09-16T09:56:24;5.53;;;0.30;;
45039;SDS011;30778;53.574;7.770;2022-09-16T10:01:41;4.50;;;1.55;;
45039;SDS011;30778;53.574;7.770;2022-09-16T10:04:11;10.93;;;1.30;;
45039;SDS011;30778;53.574;7.770;2022-09-16T10:06:40;7.60;;;0.65;;
45039;SDS011;30778;53.574;7.770;2022-09-16T10:09:07;3.75;;;0.10;;
45039;SDS011;30778;53.574;7.770;2022-09-16T10:11:44;2.30;;;0.13;;
45039;SDS011;30778;53.574;7.770;2022-09-16T10:14:29;6.65;;;0.30;;
45039;SDS011;30778;53.574;7.770;2022-09-16T10:16:59;8.07;;;0.45;;
45039;SDS011;30778;53.574;7.770;2022-09-16T10:19:27;4.05;;;0.40;;
45039;SDS011;30778;53.574;7.770;2022-09-16T10:24:52;6.47;;;0.77;;
45039;SDS011;30778;53.574;7.770;2022-09-16T10:33:20;3.97;;;0.43;;
45039;SDS011;30778;53.574;7.770;2022-09-16T10:36:06;7.28;;;1.35;;
45039;SDS011;30778;53.574;7.770;2022-09-16T10:38:43;8.15;;;0.40;;
45039;SDS011;30778;53.574;7.770;2022-09-16T10:41:28;8.23;;;1.60;;
45039;SDS011;30778;53.574;7.770;2022-09-16T10:44:10;8.85;;;0.60;;
45039;SDS011;30778;53.574;7.770;2022-09-16T10:49:46;5.00;;;0.47;;
45039;SDS011;30778;53.574;7.770;2022-09-16T10:52:23;4.72;;;0.20;;
45039;SDS011;30778;53.574;7.770;2022-09-16T10:55:32;7.45;;;0.55;;
45039;SDS011;30778;53.574;7.770;2022-09-16T10:58:35;4.72;;;0.40;;
45039;SDS011;30778;53.574;7.770;2022-09-16T11:10:03;6.10;;;0.68;;
45039;SDS011;30778;53.574;7.770;2022-09-16T11:21:23;4.85;;;0.40;;
45039;SDS011;30778;53.574;7.770;2022-09-16T11:26:29;6.35;;;0.68;;
45039;SDS011;30778;53.574;7.770;2022-09-16T11:29:36;19.75;;;2.13;;
45039;SDS011;30778;53.574;7.770;2022-09-16T11:35:23;8.68;;;1.30;;
45039;SDS011;30778;53.574;7.770;2022-09-16T11:57:03;11.25;;;0.95;;
45039;SDS011;30778;53.574;7.770;2022-09-16T11:59:44;8.90;;;1.17;;
45039;SDS011;30778;53.574;7.770;2022-09-16T12:05:17;10.38;;;0.65;;
45039;SDS011;30778;53.574;7.770;2022-09-16T12:10:40;4.65;;;0.40;;
45039;SDS011;30778;53.574;7.770;2022-09-16T12:13:26;6.97;;;0.60;;
45039;SDS011;30778;53.574;7.770;2022-09-16T12:15:56;7.50;;;1.15;;
45039;SDS011;30778;53.574;7.770;2022-09-16T12:18:48;17.23;;;1.95;;
45039;SDS011;30778;53.574;7.770;2022-09-16T12:24:02;4.97;;;0.20;;
45039;SDS011;30778;53.574;7.770;2022-09-16T12:26:45;7.20;;;0.55;;
45039;SDS011;30778;53.574;7.770;2022-09-16T12:29:25;10.27;;;0.88;;
45039;SDS011;30778;53.574;7.770;2022-09-16T12:32:03;13.05;;;1.42;;
45039;SDS011;30778;53.574;7.770;2022-09-16T12:35:31;8.27;;;0.50;;
45039;SDS011;30778;53.574;7.770;2022-09-16T12:38:02;10.73;;;0.95;;
45039;SDS011;30778;53.574;7.770;2022-09-16T12:52:42;6.07;;;0.60;;
45039;SDS011;30778;53.574;7.770;2022-09-16T13:01:51;2.58;;;0.65;;
45039;SDS011;30778;53.574;7.770;2022-09-16T13:04:27;3.67;;;0.50;;
45039;SDS011;30778;53.574;7.770;2022-09-16T13:07:27;1.35;;;0.13;;
45039;SDS011;30778;53.574;7.770;2022-09-16T13:12:52;6.20;;;0.50;;
45039;SDS011;30778;53.574;7.770;2022-09-16T13:15:37;6.47;;;0.40;;
45039;SDS011;30778;53.574;7.770;2022-09-16T13:21:04;2.45;;;0.15;;
45039;SDS011;30778;53.574;7.770;2022-09-16T13:23:51;4.85;;;0.30;;
45039;SDS011;30778;53.574;7.770;2022-09-16T13:26:42;7.45;;;0.30;;
45039;SDS011;30778;53.574;7.770;2022-09-16T13:29:28;6.93;;;0.63;;
45039;SDS011;30778;53.574;7.770;2022-09-16T13:31:56;6.78;;;1.05;;
45039;SDS011;30778;53.574;7.770;2022-09-16T13:34:29;3.72;;;0.20;;
45039;SDS011;30778;53.574;7.770;2022-09-16T13:37:21;10.55;;;0.50;;
45039;SDS011;30778;53.574;7.770;2022-09-16T13:39:55;6.75;;;0.65;;
45039;SDS011;30778;53.574;7.770;2022-09-16T13:42:32;8.52;;;0.82;;
45039;SDS011;30778;53.574;7.770;2022-09-16T13:44:59;8.10;;;0.98;;
45039;SDS011;30778;53.574;7.770;2022-09-16T13:47:35;11.27;;;1.23;;
45039;SDS011;30778;53.574;7.770;2022-09-16T13:50:23;6.28;;;0.20;;
45039;SDS011;30778;53.574;7.770;2022-09-16T13:52:57;4.40;;;1.15;;
45039;SDS011;30778;53.574;7.770;2022-09-16T13:56:09;6.90;;;0.82;;
45039;SDS011;30778;53.574;7.770;2022-09-16T14:05:00;10.68;;;0.73;;
45039;SDS011;30778;53.574;7.770;2022-09-16T14:14:03;12.80;;;0.75;;
45039;SDS011;30778;53.574;7.770;2022-09-16T14:16:43;5.78;;;0.80;;
45039;SDS011;30778;53.574;7.770;2022-09-16T14:22:02;10.65;;;0.82;;
45039;SDS011;30778;53.574;7.770;2022-09-16T14:24:34;10.85;;;1.50;;
45039;SDS011;30778;53.574;7.770;2022-09-16T14:29:30;10.55;;;1.50;;
45039;SDS011;30778;53.574;7.770;2022-09-16T14:31:56;4.75;;;0.95;;
45039;SDS011;30778;53.574;7.770;2022-09-16T14:34:34;10.48;;;1.02;;
45039;SDS011;30778;53.574;7.770;2022-09-16T14:37:04;5.60;;;0.93;;
45039;SDS011;30778;53.574;7.770;2022-09-16T14:39:37;10.75;;;1.40;;
45039;SDS011;30778;53.574;7.770;2022-09-16T14:42:16;7.20;;;1.15;;
45039;SDS011;30778;53.574;7.770;2022-09-16T14:44:56;5.90;;;0.43;;
45039;SDS011;30778;53.574;7.770;2022-09-16T14:47:43;7.32;;;0.68;;
45039;SDS011;30778;53.574;7.770;2022-09-16T14:53:21;5.28;;;0.57;;
45039;SDS011;30778;53.574;7.770;2022-09-16T14:56:20;12.77;;;2.28;;
45039;SDS011;30778;53.574;7.770;2022-09-16T14:58:49;10.82;;;0.85;;
45039;SDS011;30778;53.574;7.770;2022-09-16T15:01:25;12.35;;;0.80;;
45039;SDS011;30778;53.574;7.770;2022-09-16T15:04:03;11.20;;;1.25;;
45039;SDS011;30778;53.574;7.770;2022-09-16T15:07:05;10.88;;;0.40;;
45039;SDS011;30778;53.574;7.770;2022-09-16T15:09:47;8.57;;;0.70;;
45039;SDS011;30778;53.574;7.770;2022-09-16T15:12:36;4.10;;;0.52;;
45039;SDS011;30778;53.574;7.770;2022-09-16T15:15:21;9.95;;;0.98;;
45039;SDS011;30778;53.574;7.770;2022-09-16T15:17:57;8.25;;;0.80;;
45039;SDS011;30778;53.574;7.770;2022-09-16T15:20:27;19.40;;;1.63;;
45039;SDS011;30778;53.574;7.770;2022-09-16T15:22:56;9.25;;;0.90;;
45039;SDS011;30778;53.574;7.770;2022-09-16T15:25:51;15.50;;;1.85;;
45039;SDS011;30778;53.574;7.770;2022-09-16T15:28:19;8.07;;;0.98;;
45039;SDS011;30778;53.574;7.770;2022-09-16T15:30:46;7.32;;;1.13;;
45039;SDS011;30778;53.574;7.770;2022-09-16T15:33:25;15.35;;;0.73;;
45039;SDS011;30778;53.574;7.770;2022-09-16T15:36:02;5.90;;;0.77;;
45039;SDS011;30778;53.574;7.770;2022-09-16T15:38:35;6.60;;;1.00;;
45039;SDS011;30778;53.574;7.770;2022-09-16T15:41:13;6.43;;;0.70;;
45039;SDS011;30778;53.574;7.770;2022-09-16T15:43:56;7.18;;;1.10;;
45039;SDS011;30778;53.574;7.770;2022-09-16T15:46:44;14.20;;;1.50;;
45039;SDS011;30778;53.574;7.770;2022-09-16T15:49:15;13.18;;;1.35;;
45039;SDS011;30778;53.574;7.770;2022-09-16T15:51:46;10.13;;;1.63;;
45039;SDS011;30778;53.574;7.770;2022-09-16T15:54:27;16.10;;;1.20;;
45039;SDS011;30778;53.574;7.770;2022-09-16T15:57:10;16.83;;;1.48;;
45039;SDS011;30778;53.574;7.770;2022-09-16T15:59:59;16.58;;;1.52;;
45039;SDS011;30778;53.574;7.770;2022-09-16T16:03:00;13.00;;;0.50;;
45039;SDS011;30778;53.574;7.770;2022-09-16T16:05:48;13.95;;;1.10;;
45039;SDS011;30778;53.574;7.770;2022-09-16T16:11:21;11.35;;;1.70;;
45039;SDS011;30778;53.574;7.770;2022-09-16T16:13:55;6.25;;;1.08;;
45039;SDS011;30778;53.574;7.770;2022-09-16T16:16:25;15.40;;;2.90;;
45039;SDS011;30778;53.574;7.770;2022-09-16T16:18:58;9.55;;;2.15;;
45039;SDS011;30778;53.574;7.770;2022-09-16T16:21:30;9.98;;;1.30;;
45039;SDS011;30778;53.574;7.770;2022-09-16T16:24:10;9.48;;;1.58;;
45039;SDS011;30778;53.574;7.770;2022-09-16T16:26:41;14.33;;;1.63;;
45039;SDS011;30778;53.574;7.770;2022-09-16T16:29:13;13.90;;;0.82;;
45039;SDS011;30778;53.574;7.770;2022-09-16T16:32:00;13.77;;;1.45;;
45039;SDS011;30778;53.574;7.770;2022-09-16T16:37:34;12.15;;;0.60;;
45039;SDS011;30778;53.574;7.770;2022-09-16T16:40:09;10.18;;;1.02;;
45039;SDS011;30778;53.574;7.770;2022-09-16T16:42:43;8.52;;;1.52;;
45039;SDS011;30778;53.574;7.770;2022-09-16T16:45:33;14.02;;;1.33;;
45039;SDS011;30778;53.574;7.770;2022-09-16T16:48:04;11.57;;;1.02;;
45039;SDS011;30778;53.574;7.770;2022-09-16T16:50:34;13.75;;;3.63;;
45039;SDS011;30778;53.574;7.770;2022-09-16T16:53:02;11.63;;;3.03;;
45039;SDS011;30778;53.574;7.770;2022-09-16T16:55:30;6.65;;;1.10;;
45039;SDS011;30778;53.574;7.770;2022-09-16T16:58:04;12.40;;;1.85;;
45039;SDS011;30778;53.574;7.770;2022-09-16T17:00:49;10.00;;;0.77;;
45039;SDS011;30778;53.574;7.770;2022-09-16T17:03:15;9.15;;;0.77;;
45039;SDS011;30778;53.574;7.770;2022-09-16T17:05:48;11.15;;;0.55;;
45039;SDS011;30778;53.574;7.770;2022-09-16T17:08:24;11.02;;;1.73;;
45039;SDS011;30778;53.574;7.770;2022-09-16T17:11:07;11.50;;;0.85;;
45039;SDS011;30778;53.574;7.770;2022-09-16T17:14:00;11.43;;;0.98;;
45039;SDS011;30778;53.574;7.770;2022-09-16T17:16:35;18.38;;;0.85;;
45039;SDS011;30778;53.574;7.770;2022-09-16T17:19:11;16.10;;;7.10;;
45039;SDS011;30778;53.574;7.770;2022-09-16T17:21:41;12.52;;;3.15;;
45039;SDS011;30778;53.574;7.770;2022-09-16T17:24:16;19.27;;;2.38;;
45039;SDS011;30778;53.574;7.770;2022-09-16T17:26:45;22.48;;;2.33;;
45039;SDS011;30778;53.574;7.770;2022-09-16T17:29:33;15.07;;;1.92;;
45039;SDS011;30778;53.574;7.770;2022-09-16T17:32:01;25.10;;;2.42;;
45039;SDS011;30778;53.574;7.770;2022-09-16T17:34:32;10.82;;;2.13;;
45039;SDS011;30778;53.574;7.770;2022-09-16T17:37:08;14.60;;;1.85;;
45039;SDS011;30778;53.574;7.770;2022-09-16T17:39:50;11.65;;;2.28;;
45039;SDS011;30778;53.574;7.770;2022-09-16T17:42:38;15.73;;;1.70;;
45039;SDS011;30778;53.574;7.770;2022-09-16T17:45:12;12.18;;;1.48;;
45039;SDS011;30778;53.574;7.770;2022-09-16T17:47:37;16.52;;;1.85;;
45039;SDS011;30778;53.574;7.770;2022-09-16T17:50:03;7.28;;;1.17;;
45039;SDS011;30778;53.574;7.770;2022-09-16T17:52:32;13.63;;;1.00;;
45039;SDS011;30778;53.574;7.770;2022-09-16T17:55:02;13.85;;;0.90;;
45039;SDS011;30778;53.574;7.770;2022-09-16T17:57:31;10.25;;;1.08;;
45039;SDS011;30778;53.574;7.770;2022-09-16T18:00:00;11.40;;;1.95;;
45039;SDS011;30778;53.574;7.770;2022-09-16T18:02:39;12.07;;;1.85;;
45039;SDS011;30778;53.574;7.770;2022-09-16T18:05:16;14.80;;;1.92;;
45039;SDS011;30778;53.574;7.770;2022-09-16T18:07:44;16.15;;;1.73;;
45039;SDS011;30778;53.574;7.770;2022-09-16T18:10:19;15.73;;;1.17;;
45039;SDS011;30778;53.574;7.770;2022-09-16T18:12:57;16.67;;;1.60;;
45039;SDS011;30778;53.574;7.770;2022-09-16T18:15:41;15.65;;;1.52;;
45039;SDS011;30778;53.574;7.770;2022-09-16T18:18:17;17.10;;;1.67;;
45039;SDS011;30778;53.574;7.770;2022-09-16T18:20:52;15.15;;;1.27;;
45039;SDS011;30778;53.574;7.770;2022-09-16T18:23:24;13.15;;;1.70;;
45039;SDS011;30778;53.574;7.770;2022-09-16T18:28:28;23.85;;;2.90;;
45039;SDS011;30778;53.574;7.770;2022-09-16T18:31:08;16.75;;;2.20;;
45039;SDS011;30778;53.574;7.770;2022-09-16T18:33:37;23.60;;;1.90;;
45039;SDS011;30778;53.574;7.770;2022-09-16T18:36:04;16.42;;;2.45;;
45039;SDS011;30778;53.574;7.770;2022-09-16T18:38:36;14.10;;;1.13;;
45039;SDS011;30778;53.574;7.770;2022-09-16T18:41:11;16.95;;;1.27;;
45039;SDS011;30778;53.574;7.770;2022-09-16T18:43:39;14.90;;;1.30;;
45039;SDS011;30778;53.574;7.770;2022-09-16T18:46:22;11.20;;;1.40;;